Log in

NYSE:WTIW&T Offshore Institutional Ownership

$3.30
+0.48 (+17.02 %)
(As of 06/5/2020 04:00 PM ET)
Add
Compare
Today's Range
$2.83
Now: $3.30
$3.33
50-Day Range
$1.95
MA: $2.57
$2.85
52-Week Range
$1.07
Now: $3.30
$6.10
Volume11.46 million shs
Average Volume5.79 million shs
Market Capitalization$467.51 million
P/E Ratio6.47
Dividend YieldN/A
Beta3.21

Institutional Ownership

Institutional Ownership Changes (13F Filings) for W&T Offshore (NYSE:WTI)

Institutional Ownership Percentage: 45.00%

Institutional Buying and Selling by Quarter


W&T Offshore (NYSE WTI) Institutional Buying and Selling

Reporting DateHedge FundShares HeldMarket Value% of PortfolioQuarterly Change in SharesOwnership in Company
5/18/2020Voloridge Investment Management LLC80,849$0.14M0.0%N/A0.057%
5/18/2020Mercer Global Advisors Inc. ADV30,710$52K0.0%-21.0%0.022%
5/18/2020Advisor Group Holdings Inc.22,561$38K0.0%N/A0.016%
5/15/2020AQR Capital Management LLC19,276$33K0.0%N/A0.014%
5/15/2020Squarepoint Ops LLC103,600$0.18M0.0%N/A0.073%
5/15/2020Jane Street Group LLC56,476$96K0.0%+65.8%0.040%
5/15/2020Invesco Ltd.663,105$1.13M0.0%-12.0%0.468%
5/15/2020Morgan Stanley79,204$0.14M0.0%-71.7%0.056%
5/15/2020Quantitative Investment Management LLC50,735$86K0.0%-78.6%0.036%
5/15/2020Two Sigma Securities LLC18,599$32K0.0%N/A0.013%
5/15/2020Two Sigma Investments LP90,715$0.15M0.0%-83.0%0.064%
5/15/2020Two Sigma Advisers LP579,499$0.99M0.0%+31.6%0.409%
5/15/2020Balyasny Asset Management LLC198,234$0.34M0.0%N/A0.140%
5/15/2020Rafferty Asset Management LLC20,204$34K0.0%-87.5%0.014%
5/14/2020Wells Fargo & Company MN1,475,358$2.51M0.0%+16.7%1.041%
5/14/2020Geode Capital Management LLC1,422,225$2.42M0.0%+6.8%1.004%
5/14/2020Legal & General Group Plc18,764$32K0.0%-17.5%0.013%
5/14/2020Deutsche Bank AG185,946$0.32M0.0%-65.5%0.131%
5/14/2020Alliancebernstein L.P.143,908$0.25M0.0%-67.8%0.102%
5/14/2020Grantham Mayo Van Otterloo & Co. LLC224,100$0.38M0.0%-82.7%0.158%
5/14/2020Nuveen Asset Management LLC373,777$0.64M0.0%-43.7%0.264%
5/13/2020CoreCommodity Management LLC106,196$0.18M0.2%-63.2%0.075%
5/13/2020Parametric Portfolio Associates LLC324,942$0.55M0.0%+156.9%0.229%
5/13/2020BNP Paribas Arbitrage SA26,065$44K0.0%-87.2%0.018%
5/13/2020Horizon Kinetics Asset Management LLC95,976$0.16M0.0%+76.9%0.068%
5/12/2020Citigroup Inc.30,840$52K0.0%-85.6%0.022%
5/12/2020Victory Capital Management Inc.16,329$28K0.0%-24.4%0.012%
5/12/2020GSA Capital Partners LLP78,779$0.13M0.0%-46.4%0.056%
5/12/2020JPMorgan Chase & Co.3,007,077$5.11M0.0%-37.6%2.123%
5/12/2020Virginia Retirement Systems ET AL126,600$0.22M0.0%-44.4%0.089%
5/11/2020State Street Corp5,997,274$10.20M0.0%+24.5%4.233%
5/8/2020Staley Capital Advisers Inc.220,000$0.37M0.0%N/A0.155%
5/8/2020Hancock Whitney Corp98,599$0.17M0.0%+12.7%0.070%
5/8/2020Foundry Partners LLC1,879,628$3.20M0.2%+7.9%1.327%
5/6/2020First Trust Advisors LP530,495$0.90M0.0%+23.1%0.374%
5/6/2020Russell Investments Group Ltd.20,825$35K0.0%-86.0%0.015%
5/6/2020Bank of New York Mellon Corp803,645$1.37M0.0%-5.0%0.567%
5/6/2020Rhumbline Advisers167,629$0.29M0.0%+7.8%0.118%
5/6/2020New York State Common Retirement Fund157,363$0.27M0.0%+3.6%0.111%
5/5/2020Teacher Retirement System of Texas176,930$0.30M0.0%+5.8%0.125%
5/5/2020Arizona State Retirement System23,120$39K0.0%N/A0.016%
5/5/2020State Board of Administration of Florida Retirement System38,999$66K0.0%-74.3%0.028%
5/5/2020Creative Planning16,894$29K0.0%+63.4%0.012%
5/4/2020Los Angeles Capital Management & Equity Research Inc.109,400$0.19M0.0%N/A0.077%
5/4/2020Victory Capital Management Inc.16,329$28K0.0%-24.4%0.012%
5/2/2020SG Americas Securities LLC38,322$65K0.0%+23.5%0.027%
5/1/2020BlackRock Inc.7,020,447$11.93M0.0%-0.1%4.956%
5/1/2020UBS Group AG160,078$0.27M0.0%+6.7%0.113%
4/23/2020Envestnet Asset Management Inc.34,765$59K0.0%-20.4%0.025%
4/23/2020Denali Advisors LLC213,050$0.36M0.1%+44.9%0.150%
4/21/2020Raymond James & Associates59,330$0.10M0.0%+41.5%0.042%
4/9/2020Alpine Global Management LLC18,176$31K0.0%N/A0.013%
3/2/2020Connor Clark & Lunn Investment Management Ltd.691,753$3.85M0.0%-25.9%0.492%
2/20/2020Geode Capital Management LLC1,332,037$7.41M0.0%+15.0%0.947%
2/18/2020Man Group plc1,431,450$7.96M0.0%+12.0%1.017%
2/17/2020Ladenburg Thalmann Financial Services Inc.26,018$0.15M0.0%+3,544.0%0.018%
2/14/2020Caxton Associates LP23,976$0.13M0.0%N/A0.017%
2/14/2020Point72 Hong Kong Ltd14,798$82K0.0%-18.9%0.011%
2/14/2020Cubist Systematic Strategies LLC48,476$0.27M0.0%+524.2%0.034%
2/14/2020Jane Street Group LLC34,062$0.19M0.0%N/A0.024%
2/14/2020Bank of America Corp DE407,765$2.27M0.0%+48.6%0.290%
2/14/2020Ellington Management Group LLC10,000$56K0.0%N/A0.007%
2/14/2020Jacobs Levy Equity Management Inc.29,000$0.16M0.0%-42.1%0.021%
2/14/2020Bank of New York Mellon Corp845,886$4.70M0.0%-33.6%0.601%
2/14/2020Goldman Sachs Group Inc.523,962$2.91M0.0%-11.7%0.372%
2/14/2020UBS Group AG150,080$0.83M0.0%-7.1%0.107%
2/13/2020Meeder Asset Management Inc.6,433$35K0.0%-79.1%0.005%
2/13/2020Hotchkis & Wiley Capital Management LLC1,475,070$8.20M0.0%N/A1.048%
2/13/2020Mercer Global Advisors Inc. ADV38,871$0.22M0.0%+11.9%0.028%
2/13/2020Capital Impact Advisors LLC472,371$2.63M0.9%+8.8%0.336%
2/13/2020Renaissance Technologies LLC10,331,810$57.45M0.0%+6.2%7.344%
2/12/2020Connor Clark & Lunn Investment Management Ltd.691,753$3.85M0.0%-25.9%0.492%
2/12/2020NumerixS Investment Technologies Inc19,671$0.11M0.0%-14.4%0.014%
2/12/2020Credit Suisse AG175,243$0.98M0.0%-46.5%0.125%
2/12/2020Raymond James & Associates41,919$0.23M0.0%-10.0%0.030%
2/12/2020Citigroup Inc.214,830$1.19M0.0%+20.9%0.153%
2/12/2020Panagora Asset Management Inc.1,869,460$10.39M0.0%+16.7%1.329%
2/11/2020Great West Life Assurance Co. Can7,202$40K0.0%N/A0.005%
2/11/2020Envestnet Asset Management Inc.43,657$0.24M0.0%+8.4%0.031%
2/10/2020Foundry Partners LLC1,741,542$9.68M0.4%+9.1%1.238%
2/10/2020Barclays PLC96,207$0.54M0.0%-71.3%0.068%
2/10/2020LSV Asset Management4,749,568$26.41M0.0%+1.4%3.376%
2/10/2020Bank of Montreal Can1,255,266$6.98M0.0%+60.1%0.892%
2/10/2020GW&K Investment Management LLC30,913$0.17M0.0%-20.5%0.022%
2/10/2020Rafferty Asset Management LLC161,223$0.90M0.0%-32.7%0.115%
2/7/2020MERIAN GLOBAL INVESTORS UK Ltd330,530$1.84M0.0%-33.0%0.235%
2/7/2020Charles Schwab Investment Management Inc.567,920$3.16M0.0%+2.4%0.404%
2/7/2020Globeflex Capital L P137,038$0.76M0.1%+53.9%0.097%
2/6/2020Victory Capital Management Inc.21,590$0.12M0.0%+27.2%0.015%
2/6/2020Sei Investments Co.125,876$0.70M0.0%+897.3%0.089%
2/6/2020Teacher Retirement System of Texas167,187$0.93M0.0%N/A0.119%
2/6/2020State Street Corp4,816,873$26.78M0.0%+21.9%3.424%
2/6/2020Swiss National Bank188,500$1.05M0.0%+2.9%0.134%
2/5/2020Rhumbline Advisers155,438$0.86M0.0%+2.5%0.110%
2/4/2020CoreCommodity Management LLC288,401$1.60M0.9%+25.1%0.205%
2/4/2020Aigen Investment Management LP58,978$0.33M0.1%N/A0.042%
2/3/2020MERIAN GLOBAL INVESTORS UK Ltd330,530$1.84M0.1%-33.0%0.235%
2/3/2020First Trust Advisors LP430,782$2.40M0.0%-20.2%0.306%
1/30/2020Denali Advisors LLC147,010$0.82M0.1%+49.8%0.104%
1/29/2020Russell Investments Group Ltd.149,101$0.83M0.0%-18.3%0.106%
(Data available from 1/1/2016 forward)
This page was last updated on 6/6/2020 by MarketBeat.com Staff

Enter your email address below to receive a concise daily summary of analysts' upgrades, downgrades and new coverage with MarketBeat.com's FREE daily email newsletter.